sensor_id;sensor_type;location;lat;lon;timestamp;P1;durP1;ratioP1;P2;durP2;ratioP2
76377;SDS011;65200;49.500;8.654;2023-04-30T00:01:29;5.03;;;3.75;;
76377;SDS011;65200;49.500;8.654;2023-04-30T00:03:56;4.85;;;3.22;;
76377;SDS011;65200;49.500;8.654;2023-04-30T00:06:22;5.53;;;3.10;;
76377;SDS011;65200;49.500;8.654;2023-04-30T00:08:50;6.53;;;3.30;;
76377;SDS011;65200;49.500;8.654;2023-04-30T00:11:16;3.85;;;3.20;;
76377;SDS011;65200;49.500;8.654;2023-04-30T00:13:43;5.25;;;3.05;;
76377;SDS011;65200;49.500;8.654;2023-04-30T00:16:09;3.67;;;3.08;;
76377;SDS011;65200;49.500;8.654;2023-04-30T00:18:36;3.97;;;2.53;;
76377;SDS011;65200;49.500;8.654;2023-04-30T00:21:02;4.65;;;2.92;;
76377;SDS011;65200;49.500;8.654;2023-04-30T00:23:29;4.32;;;3.70;;
76377;SDS011;65200;49.500;8.654;2023-04-30T00:25:57;4.45;;;3.28;;
76377;SDS011;65200;49.500;8.654;2023-04-30T00:28:23;4.47;;;3.08;;
76377;SDS011;65200;49.500;8.654;2023-04-30T00:30:49;4.32;;;3.03;;
76377;SDS011;65200;49.500;8.654;2023-04-30T00:33:16;2.95;;;2.45;;
76377;SDS011;65200;49.500;8.654;2023-04-30T00:35:42;5.43;;;3.65;;
76377;SDS011;65200;49.500;8.654;2023-04-30T00:38:09;3.20;;;2.90;;
76377;SDS011;65200;49.500;8.654;2023-04-30T00:40:35;5.13;;;3.08;;
76377;SDS011;65200;49.500;8.654;2023-04-30T00:43:04;3.63;;;2.83;;
76377;SDS011;65200;49.500;8.654;2023-04-30T00:45:31;4.30;;;3.33;;
76377;SDS011;65200;49.500;8.654;2023-04-30T00:47:57;3.90;;;3.17;;
76377;SDS011;65200;49.500;8.654;2023-04-30T00:50:24;4.57;;;3.20;;
76377;SDS011;65200;49.500;8.654;2023-04-30T00:52:50;4.38;;;2.85;;
76377;SDS011;65200;49.500;8.654;2023-04-30T00:55:16;4.40;;;3.25;;
76377;SDS011;65200;49.500;8.654;2023-04-30T00:57:44;5.28;;;4.15;;
76377;SDS011;65200;49.500;8.654;2023-04-30T01:00:12;3.60;;;2.88;;
76377;SDS011;65200;49.500;8.654;2023-04-30T01:02:39;3.20;;;2.50;;
76377;SDS011;65200;49.500;8.654;2023-04-30T01:05:06;5.18;;;2.80;;
76377;SDS011;65200;49.500;8.654;2023-04-30T01:07:33;2.65;;;2.25;;
76377;SDS011;65200;49.500;8.654;2023-04-30T01:10:00;4.13;;;3.20;;
76377;SDS011;65200;49.500;8.654;2023-04-30T01:12:28;3.13;;;2.83;;
76377;SDS011;65200;49.500;8.654;2023-04-30T01:15:06;4.65;;;3.38;;
76377;SDS011;65200;49.500;8.654;2023-04-30T01:17:40;3.70;;;3.38;;
76377;SDS011;65200;49.500;8.654;2023-04-30T01:20:13;4.70;;;2.70;;
76377;SDS011;65200;49.500;8.654;2023-04-30T01:22:45;3.75;;;3.25;;
76377;SDS011;65200;49.500;8.654;2023-04-30T01:25:30;3.80;;;3.08;;
76377;SDS011;65200;49.500;8.654;2023-04-30T01:28:08;4.28;;;2.95;;
76377;SDS011;65200;49.500;8.654;2023-04-30T01:30:39;5.28;;;3.55;;
76377;SDS011;65200;49.500;8.654;2023-04-30T01:33:08;2.78;;;2.38;;
76377;SDS011;65200;49.500;8.654;2023-04-30T01:41:09;3.22;;;2.58;;
76377;SDS011;65200;49.500;8.654;2023-04-30T01:43:49;3.97;;;3.20;;
76377;SDS011;65200;49.500;8.654;2023-04-30T01:46:23;6.50;;;2.78;;
76377;SDS011;65200;49.500;8.654;2023-04-30T01:48:53;2.83;;;2.53;;
76377;SDS011;65200;49.500;8.654;2023-04-30T01:51:27;3.50;;;3.00;;
76377;SDS011;65200;49.500;8.654;2023-04-30T01:53:59;3.40;;;2.83;;
76377;SDS011;65200;49.500;8.654;2023-04-30T01:56:31;3.95;;;3.30;;
76377;SDS011;65200;49.500;8.654;2023-04-30T01:59:03;6.00;;;3.30;;
76377;SDS011;65200;49.500;8.654;2023-04-30T02:01:31;4.53;;;3.35;;
76377;SDS011;65200;49.500;8.654;2023-04-30T02:03:58;3.75;;;3.45;;
76377;SDS011;65200;49.500;8.654;2023-04-30T02:06:25;3.20;;;2.85;;
76377;SDS011;65200;49.500;8.654;2023-04-30T02:08:52;3.90;;;2.85;;
76377;SDS011;65200;49.500;8.654;2023-04-30T02:11:19;4.85;;;3.58;;
76377;SDS011;65200;49.500;8.654;2023-04-30T02:13:48;7.13;;;3.35;;
76377;SDS011;65200;49.500;8.654;2023-04-30T02:16:16;5.63;;;4.00;;
76377;SDS011;65200;49.500;8.654;2023-04-30T02:18:42;4.72;;;4.22;;
76377;SDS011;65200;49.500;8.654;2023-04-30T02:21:08;5.10;;;4.70;;
76377;SDS011;65200;49.500;8.654;2023-04-30T02:23:35;3.67;;;2.97;;
76377;SDS011;65200;49.500;8.654;2023-04-30T02:26:01;4.65;;;3.63;;
76377;SDS011;65200;49.500;8.654;2023-04-30T02:28:28;3.53;;;3.08;;
76377;SDS011;65200;49.500;8.654;2023-04-30T02:30:55;2.58;;;1.92;;
76377;SDS011;65200;49.500;8.654;2023-04-30T02:33:23;4.40;;;3.10;;
76377;SDS011;65200;49.500;8.654;2023-04-30T02:35:50;3.25;;;2.60;;
76377;SDS011;65200;49.500;8.654;2023-04-30T02:38:16;4.82;;;3.65;;
76377;SDS011;65200;49.500;8.654;2023-04-30T02:40:42;3.53;;;2.88;;
76377;SDS011;65200;49.500;8.654;2023-04-30T02:43:09;3.53;;;2.50;;
76377;SDS011;65200;49.500;8.654;2023-04-30T02:45:35;3.72;;;3.03;;
76377;SDS011;65200;49.500;8.654;2023-04-30T02:48:02;4.22;;;2.90;;
76377;SDS011;65200;49.500;8.654;2023-04-30T02:50:29;3.75;;;3.38;;
76377;SDS011;65200;49.500;8.654;2023-04-30T02:52:56;4.88;;;3.67;;
76377;SDS011;65200;49.500;8.654;2023-04-30T02:55:22;3.65;;;2.95;;
76377;SDS011;65200;49.500;8.654;2023-04-30T02:57:49;5.93;;;3.92;;
76377;SDS011;65200;49.500;8.654;2023-04-30T03:00:15;5.00;;;3.10;;
76377;SDS011;65200;49.500;8.654;2023-04-30T03:02:42;5.97;;;4.25;;
76377;SDS011;65200;49.500;8.654;2023-04-30T03:05:09;4.97;;;3.10;;
76377;SDS011;65200;49.500;8.654;2023-04-30T03:07:37;7.10;;;2.35;;
76377;SDS011;65200;49.500;8.654;2023-04-30T03:10:04;4.45;;;4.05;;
76377;SDS011;65200;49.500;8.654;2023-04-30T03:12:32;5.60;;;3.28;;
76377;SDS011;65200;49.500;8.654;2023-04-30T03:14:58;9.52;;;3.72;;
76377;SDS011;65200;49.500;8.654;2023-04-30T03:17:24;3.70;;;3.13;;
76377;SDS011;65200;49.500;8.654;2023-04-30T03:19:51;4.15;;;3.30;;
76377;SDS011;65200;49.500;8.654;2023-04-30T03:22:17;8.98;;;3.90;;
76377;SDS011;65200;49.500;8.654;2023-04-30T03:24:48;5.28;;;3.88;;
76377;SDS011;65200;49.500;8.654;2023-04-30T03:27:15;5.70;;;3.28;;
76377;SDS011;65200;49.500;8.654;2023-04-30T03:29:41;5.18;;;4.07;;
76377;SDS011;65200;49.500;8.654;2023-04-30T03:32:08;4.97;;;3.50;;
76377;SDS011;65200;49.500;8.654;2023-04-30T03:34:34;4.63;;;3.58;;
76377;SDS011;65200;49.500;8.654;2023-04-30T03:37:01;7.80;;;3.70;;
76377;SDS011;65200;49.500;8.654;2023-04-30T03:39:27;6.15;;;4.03;;
76377;SDS011;65200;49.500;8.654;2023-04-30T03:41:55;8.43;;;4.38;;
76377;SDS011;65200;49.500;8.654;2023-04-30T03:44:22;4.00;;;3.10;;
76377;SDS011;65200;49.500;8.654;2023-04-30T03:46:48;3.97;;;3.65;;
76377;SDS011;65200;49.500;8.654;2023-04-30T03:49:15;6.85;;;3.38;;
76377;SDS011;65200;49.500;8.654;2023-04-30T03:51:41;5.57;;;3.45;;
76377;SDS011;65200;49.500;8.654;2023-04-30T03:54:07;4.97;;;2.78;;
76377;SDS011;65200;49.500;8.654;2023-04-30T03:56:34;4.93;;;3.78;;
76377;SDS011;65200;49.500;8.654;2023-04-30T03:59:02;6.95;;;3.67;;
76377;SDS011;65200;49.500;8.654;2023-04-30T04:01:29;4.40;;;3.85;;
76377;SDS011;65200;49.500;8.654;2023-04-30T04:03:56;5.90;;;3.50;;
76377;SDS011;65200;49.500;8.654;2023-04-30T04:06:22;3.38;;;2.85;;
76377;SDS011;65200;49.500;8.654;2023-04-30T04:08:49;4.30;;;3.70;;
76377;SDS011;65200;49.500;8.654;2023-04-30T04:11:15;3.35;;;3.00;;
76377;SDS011;65200;49.500;8.654;2023-04-30T04:13:41;5.53;;;3.75;;
76377;SDS011;65200;49.500;8.654;2023-04-30T04:16:09;4.82;;;3.92;;
76377;SDS011;65200;49.500;8.654;2023-04-30T04:18:36;4.70;;;3.92;;
76377;SDS011;65200;49.500;8.654;2023-04-30T04:21:02;4.25;;;3.47;;
76377;SDS011;65200;49.500;8.654;2023-04-30T04:23:29;5.57;;;4.05;;
76377;SDS011;65200;49.500;8.654;2023-04-30T04:25:55;6.15;;;4.38;;
76377;SDS011;65200;49.500;8.654;2023-04-30T04:28:22;6.65;;;4.38;;
76377;SDS011;65200;49.500;8.654;2023-04-30T04:30:48;4.47;;;3.30;;
76377;SDS011;65200;49.500;8.654;2023-04-30T04:33:16;5.75;;;3.58;;
76377;SDS011;65200;49.500;8.654;2023-04-30T04:35:43;4.47;;;3.22;;
76377;SDS011;65200;49.500;8.654;2023-04-30T04:38:09;5.18;;;4.53;;
76377;SDS011;65200;49.500;8.654;2023-04-30T04:40:36;4.35;;;3.95;;
76377;SDS011;65200;49.500;8.654;2023-04-30T04:43:03;4.68;;;3.92;;
76377;SDS011;65200;49.500;8.654;2023-04-30T04:45:29;3.85;;;2.90;;
76377;SDS011;65200;49.500;8.654;2023-04-30T04:47:57;4.60;;;3.13;;
76377;SDS011;65200;49.500;8.654;2023-04-30T04:50:25;6.45;;;3.05;;
76377;SDS011;65200;49.500;8.654;2023-04-30T04:52:51;5.97;;;4.13;;
76377;SDS011;65200;49.500;8.654;2023-04-30T04:55:18;7.25;;;4.38;;
76377;SDS011;65200;49.500;8.654;2023-04-30T04:57:44;5.20;;;4.18;;
76377;SDS011;65200;49.500;8.654;2023-04-30T05:00:11;4.97;;;3.92;;
76377;SDS011;65200;49.500;8.654;2023-04-30T05:02:38;3.78;;;2.47;;
76377;SDS011;65200;49.500;8.654;2023-04-30T05:05:04;5.93;;;4.40;;
76377;SDS011;65200;49.500;8.654;2023-04-30T05:07:33;5.07;;;3.88;;
76377;SDS011;65200;49.500;8.654;2023-04-30T05:12:26;5.75;;;3.53;;
76377;SDS011;65200;49.500;8.654;2023-04-30T05:14:52;5.18;;;4.10;;
76377;SDS011;65200;49.500;8.654;2023-04-30T05:17:19;4.25;;;2.92;;
76377;SDS011;65200;49.500;8.654;2023-04-30T05:19:45;4.78;;;4.00;;
76377;SDS011;65200;49.500;8.654;2023-04-30T05:22:14;6.80;;;4.18;;
76377;SDS011;65200;49.500;8.654;2023-04-30T05:24:42;4.97;;;4.47;;
76377;SDS011;65200;49.500;8.654;2023-04-30T05:27:09;4.07;;;3.67;;
76377;SDS011;65200;49.500;8.654;2023-04-30T05:29:35;5.22;;;3.55;;
76377;SDS011;65200;49.500;8.654;2023-04-30T05:32:01;3.95;;;3.42;;
76377;SDS011;65200;49.500;8.654;2023-04-30T05:34:28;4.15;;;3.50;;
76377;SDS011;65200;49.500;8.654;2023-04-30T05:36:54;5.05;;;2.70;;
76377;SDS011;65200;49.500;8.654;2023-04-30T05:39:21;5.63;;;4.40;;
76377;SDS011;65200;49.500;8.654;2023-04-30T05:41:49;5.90;;;3.67;;
76377;SDS011;65200;49.500;8.654;2023-04-30T05:46:41;3.80;;;3.35;;
76377;SDS011;65200;49.500;8.654;2023-04-30T05:49:08;4.13;;;3.55;;
76377;SDS011;65200;49.500;8.654;2023-04-30T05:51:34;5.70;;;4.70;;
76377;SDS011;65200;49.500;8.654;2023-04-30T05:54:01;4.72;;;3.95;;
76377;SDS011;65200;49.500;8.654;2023-04-30T05:56:27;4.53;;;3.72;;
76377;SDS011;65200;49.500;8.654;2023-04-30T05:58:55;4.68;;;4.10;;
76377;SDS011;65200;49.500;8.654;2023-04-30T06:01:21;4.68;;;2.90;;
76377;SDS011;65200;49.500;8.654;2023-04-30T06:03:48;5.88;;;4.10;;
76377;SDS011;65200;49.500;8.654;2023-04-30T06:06:14;3.85;;;3.33;;
76377;SDS011;65200;49.500;8.654;2023-04-30T06:08:41;4.57;;;3.60;;
76377;SDS011;65200;49.500;8.654;2023-04-30T06:11:09;4.63;;;3.00;;
76377;SDS011;65200;49.500;8.654;2023-04-30T06:13:36;5.72;;;3.03;;
76377;SDS011;65200;49.500;8.654;2023-04-30T06:16:05;3.17;;;2.83;;
76377;SDS011;65200;49.500;8.654;2023-04-30T06:18:31;7.55;;;3.75;;
76377;SDS011;65200;49.500;8.654;2023-04-30T06:20:58;4.90;;;3.53;;
76377;SDS011;65200;49.500;8.654;2023-04-30T06:23:24;6.22;;;3.67;;
76377;SDS011;65200;49.500;8.654;2023-04-30T06:25:51;4.03;;;3.15;;
76377;SDS011;65200;49.500;8.654;2023-04-30T06:28:17;5.18;;;3.55;;
76377;SDS011;65200;49.500;8.654;2023-04-30T06:30:43;4.55;;;4.03;;
76377;SDS011;65200;49.500;8.654;2023-04-30T06:33:11;3.65;;;3.15;;
76377;SDS011;65200;49.500;8.654;2023-04-30T06:35:38;5.38;;;3.88;;
76377;SDS011;65200;49.500;8.654;2023-04-30T06:38:04;4.82;;;3.80;;
76377;SDS011;65200;49.500;8.654;2023-04-30T06:40:31;5.78;;;3.65;;
76377;SDS011;65200;49.500;8.654;2023-04-30T06:42:57;5.53;;;3.80;;
76377;SDS011;65200;49.500;8.654;2023-04-30T06:45:24;5.45;;;3.78;;
76377;SDS011;65200;49.500;8.654;2023-04-30T06:47:50;5.65;;;4.28;;
76377;SDS011;65200;49.500;8.654;2023-04-30T06:50:18;3.88;;;3.00;;
76377;SDS011;65200;49.500;8.654;2023-04-30T06:52:45;6.32;;;4.15;;
76377;SDS011;65200;49.500;8.654;2023-04-30T06:55:12;3.30;;;2.63;;
76377;SDS011;65200;49.500;8.654;2023-04-30T06:57:39;8.43;;;4.32;;
76377;SDS011;65200;49.500;8.654;2023-04-30T07:00:06;3.92;;;3.45;;
76377;SDS011;65200;49.500;8.654;2023-04-30T07:02:33;4.68;;;3.72;;
76377;SDS011;65200;49.500;8.654;2023-04-30T07:05:00;5.40;;;3.90;;
76377;SDS011;65200;49.500;8.654;2023-04-30T07:07:27;4.75;;;3.17;;
76377;SDS011;65200;49.500;8.654;2023-04-30T07:12:20;3.95;;;3.00;;
76377;SDS011;65200;49.500;8.654;2023-04-30T07:14:47;5.10;;;4.05;;
76377;SDS011;65200;49.500;8.654;2023-04-30T07:17:13;4.13;;;3.00;;
76377;SDS011;65200;49.500;8.654;2023-04-30T07:19:40;6.25;;;3.15;;
76377;SDS011;65200;49.500;8.654;2023-04-30T07:22:06;4.57;;;3.13;;
76377;SDS011;65200;49.500;8.654;2023-04-30T07:24:34;3.50;;;3.20;;
76377;SDS011;65200;49.500;8.654;2023-04-30T07:27:00;4.85;;;3.10;;
76377;SDS011;65200;49.500;8.654;2023-04-30T07:29:27;4.72;;;3.25;;
76377;SDS011;65200;49.500;8.654;2023-04-30T07:31:54;6.57;;;3.17;;
76377;SDS011;65200;49.500;8.654;2023-04-30T07:34:21;5.22;;;3.08;;
76377;SDS011;65200;49.500;8.654;2023-04-30T07:36:48;4.57;;;3.47;;
76377;SDS011;65200;49.500;8.654;2023-04-30T07:39:15;4.13;;;3.28;;
76377;SDS011;65200;49.500;8.654;2023-04-30T07:41:43;3.67;;;2.85;;
76377;SDS011;65200;49.500;8.654;2023-04-30T07:44:09;4.18;;;2.60;;
76377;SDS011;65200;49.500;8.654;2023-04-30T07:46:36;3.47;;;2.70;;
76377;SDS011;65200;49.500;8.654;2023-04-30T07:49:03;4.07;;;3.20;;
76377;SDS011;65200;49.500;8.654;2023-04-30T07:51:29;3.83;;;2.88;;
76377;SDS011;65200;49.500;8.654;2023-04-30T07:53:56;5.85;;;3.55;;
76377;SDS011;65200;49.500;8.654;2023-04-30T07:56:23;3.67;;;2.75;;
76377;SDS011;65200;49.500;8.654;2023-04-30T07:58:51;5.22;;;3.08;;
76377;SDS011;65200;49.500;8.654;2023-04-30T08:01:17;4.70;;;2.80;;
76377;SDS011;65200;49.500;8.654;2023-04-30T08:03:44;3.45;;;2.58;;
76377;SDS011;65200;49.500;8.654;2023-04-30T08:06:11;3.55;;;2.85;;
76377;SDS011;65200;49.500;8.654;2023-04-30T08:08:37;4.35;;;3.20;;
76377;SDS011;65200;49.500;8.654;2023-04-30T08:11:04;4.13;;;3.55;;
76377;SDS011;65200;49.500;8.654;2023-04-30T08:13:30;3.55;;;2.50;;
76377;SDS011;65200;49.500;8.654;2023-04-30T08:15:58;3.67;;;2.65;;
76377;SDS011;65200;49.500;8.654;2023-04-30T08:18:24;3.72;;;2.78;;
76377;SDS011;65200;49.500;8.654;2023-04-30T08:20:51;4.18;;;2.50;;
76377;SDS011;65200;49.500;8.654;2023-04-30T08:23:17;4.05;;;3.17;;
76377;SDS011;65200;49.500;8.654;2023-04-30T08:25:44;5.07;;;2.38;;
76377;SDS011;65200;49.500;8.654;2023-04-30T08:28:10;3.67;;;2.85;;
76377;SDS011;65200;49.500;8.654;2023-04-30T08:30:37;3.85;;;3.20;;
76377;SDS011;65200;49.500;8.654;2023-04-30T08:33:05;4.93;;;2.70;;
76377;SDS011;65200;49.500;8.654;2023-04-30T08:35:32;3.40;;;2.47;;
76377;SDS011;65200;49.500;8.654;2023-04-30T08:37:58;3.13;;;2.60;;
76377;SDS011;65200;49.500;8.654;2023-04-30T08:40:25;4.72;;;2.40;;
76377;SDS011;65200;49.500;8.654;2023-04-30T08:42:52;2.38;;;1.90;;
76377;SDS011;65200;49.500;8.654;2023-04-30T08:45:25;3.13;;;2.40;;
76377;SDS011;65200;49.500;8.654;2023-04-30T08:47:51;3.90;;;2.63;;
76377;SDS011;65200;49.500;8.654;2023-04-30T08:50:19;3.15;;;1.92;;
76377;SDS011;65200;49.500;8.654;2023-04-30T08:52:46;3.58;;;2.33;;
76377;SDS011;65200;49.500;8.654;2023-04-30T08:55:12;2.42;;;1.90;;
76377;SDS011;65200;49.500;8.654;2023-04-30T08:57:39;3.13;;;2.25;;
76377;SDS011;65200;49.500;8.654;2023-04-30T09:00:05;5.00;;;2.35;;
76377;SDS011;65200;49.500;8.654;2023-04-30T09:02:33;3.88;;;2.38;;
76377;SDS011;65200;49.500;8.654;2023-04-30T09:05:05;3.60;;;2.42;;
76377;SDS011;65200;49.500;8.654;2023-04-30T09:07:36;2.67;;;2.33;;
76377;SDS011;65200;49.500;8.654;2023-04-30T09:10:08;3.15;;;2.25;;
76377;SDS011;65200;49.500;8.654;2023-04-30T09:12:40;3.63;;;2.25;;
76377;SDS011;65200;49.500;8.654;2023-04-30T09:15:10;3.97;;;2.60;;
76377;SDS011;65200;49.500;8.654;2023-04-30T09:17:37;3.45;;;2.88;;
76377;SDS011;65200;49.500;8.654;2023-04-30T09:20:07;4.07;;;2.58;;
76377;SDS011;65200;49.500;8.654;2023-04-30T09:22:35;2.55;;;2.00;;
76377;SDS011;65200;49.500;8.654;2023-04-30T09:25:04;2.90;;;2.15;;
76377;SDS011;65200;49.500;8.654;2023-04-30T09:27:31;3.20;;;2.38;;
76377;SDS011;65200;49.500;8.654;2023-04-30T09:29:58;6.22;;;2.83;;
76377;SDS011;65200;49.500;8.654;2023-04-30T09:32:25;3.15;;;2.13;;
76377;SDS011;65200;49.500;8.654;2023-04-30T09:34:51;2.90;;;2.20;;
76377;SDS011;65200;49.500;8.654;2023-04-30T09:37:18;2.92;;;2.03;;
76377;SDS011;65200;49.500;8.654;2023-04-30T09:39:49;2.72;;;1.75;;
76377;SDS011;65200;49.500;8.654;2023-04-30T09:42:16;2.63;;;2.08;;
76377;SDS011;65200;49.500;8.654;2023-04-30T09:44:43;3.60;;;2.05;;
76377;SDS011;65200;49.500;8.654;2023-04-30T09:47:10;2.63;;;1.80;;
76377;SDS011;65200;49.500;8.654;2023-04-30T09:49:39;3.03;;;2.35;;
76377;SDS011;65200;49.500;8.654;2023-04-30T09:52:06;3.28;;;1.90;;
76377;SDS011;65200;49.500;8.654;2023-04-30T09:54:33;3.03;;;1.90;;
76377;SDS011;65200;49.500;8.654;2023-04-30T09:57:02;3.95;;;2.10;;
76377;SDS011;65200;49.500;8.654;2023-04-30T09:59:29;2.95;;;2.10;;
76377;SDS011;65200;49.500;8.654;2023-04-30T10:01:58;2.85;;;2.13;;
76377;SDS011;65200;49.500;8.654;2023-04-30T10:04:26;3.13;;;1.95;;
76377;SDS011;65200;49.500;8.654;2023-04-30T10:06:53;2.80;;;2.20;;
76377;SDS011;65200;49.500;8.654;2023-04-30T10:09:23;2.75;;;1.98;;
76377;SDS011;65200;49.500;8.654;2023-04-30T10:11:54;2.30;;;1.75;;
76377;SDS011;65200;49.500;8.654;2023-04-30T10:14:23;3.00;;;2.25;;
76377;SDS011;65200;49.500;8.654;2023-04-30T10:16:54;3.30;;;2.30;;
76377;SDS011;65200;49.500;8.654;2023-04-30T10:19:24;2.25;;;1.98;;
76377;SDS011;65200;49.500;8.654;2023-04-30T10:21:54;2.22;;;1.80;;
76377;SDS011;65200;49.500;8.654;2023-04-30T10:24:21;2.55;;;1.92;;
76377;SDS011;65200;49.500;8.654;2023-04-30T10:26:48;3.03;;;2.00;;
76377;SDS011;65200;49.500;8.654;2023-04-30T10:29:15;2.40;;;1.80;;
76377;SDS011;65200;49.500;8.654;2023-04-30T10:31:44;4.40;;;2.25;;
76377;SDS011;65200;49.500;8.654;2023-04-30T10:34:14;2.83;;;2.03;;
76377;SDS011;65200;49.500;8.654;2023-04-30T10:36:47;2.97;;;2.22;;
76377;SDS011;65200;49.500;8.654;2023-04-30T10:39:17;2.47;;;1.90;;
76377;SDS011;65200;49.500;8.654;2023-04-30T10:41:46;2.55;;;1.90;;
76377;SDS011;65200;49.500;8.654;2023-04-30T10:44:13;2.60;;;1.90;;
76377;SDS011;65200;49.500;8.654;2023-04-30T10:46:40;2.70;;;1.85;;
76377;SDS011;65200;49.500;8.654;2023-04-30T10:49:08;2.97;;;2.15;;
76377;SDS011;65200;49.500;8.654;2023-04-30T10:51:45;2.35;;;1.70;;
76377;SDS011;65200;49.500;8.654;2023-04-30T10:54:14;3.78;;;2.03;;
76377;SDS011;65200;49.500;8.654;2023-04-30T10:56:43;2.70;;;2.00;;
76377;SDS011;65200;49.500;8.654;2023-04-30T10:59:11;3.28;;;1.67;;
76377;SDS011;65200;49.500;8.654;2023-04-30T11:04:24;3.35;;;2.42;;
76377;SDS011;65200;49.500;8.654;2023-04-30T11:06:54;2.75;;;2.15;;
76377;SDS011;65200;49.500;8.654;2023-04-30T11:09:34;3.08;;;2.08;;
76377;SDS011;65200;49.500;8.654;2023-04-30T11:12:02;2.78;;;2.20;;
76377;SDS011;65200;49.500;8.654;2023-04-30T11:14:30;5.38;;;2.33;;
76377;SDS011;65200;49.500;8.654;2023-04-30T11:16:58;2.80;;;1.77;;
76377;SDS011;65200;49.500;8.654;2023-04-30T11:19:26;3.67;;;2.10;;
76377;SDS011;65200;49.500;8.654;2023-04-30T11:24:49;2.85;;;1.92;;
76377;SDS011;65200;49.500;8.654;2023-04-30T11:27:19;2.85;;;2.15;;
76377;SDS011;65200;49.500;8.654;2023-04-30T11:29:48;2.70;;;2.05;;
76377;SDS011;65200;49.500;8.654;2023-04-30T11:32:15;3.05;;;2.30;;
76377;SDS011;65200;49.500;8.654;2023-04-30T11:34:43;2.60;;;2.03;;
76377;SDS011;65200;49.500;8.654;2023-04-30T11:37:11;2.60;;;2.00;;
76377;SDS011;65200;49.500;8.654;2023-04-30T11:39:39;4.18;;;1.80;;
76377;SDS011;65200;49.500;8.654;2023-04-30T11:42:07;2.05;;;1.73;;
76377;SDS011;65200;49.500;8.654;2023-04-30T11:44:33;2.17;;;1.65;;
76377;SDS011;65200;49.500;8.654;2023-04-30T11:47:00;2.92;;;2.20;;
76377;SDS011;65200;49.500;8.654;2023-04-30T11:49:26;4.72;;;2.05;;
76377;SDS011;65200;49.500;8.654;2023-04-30T11:51:54;3.45;;;2.00;;
76377;SDS011;65200;49.500;8.654;2023-04-30T11:54:21;4.63;;;1.73;;
76377;SDS011;65200;49.500;8.654;2023-04-30T11:56:48;2.40;;;1.85;;
76377;SDS011;65200;49.500;8.654;2023-04-30T11:59:14;2.47;;;2.05;;
76377;SDS011;65200;49.500;8.654;2023-04-30T12:01:43;2.38;;;1.88;;
76377;SDS011;65200;49.500;8.654;2023-04-30T12:04:09;2.33;;;1.73;;
76377;SDS011;65200;49.500;8.654;2023-04-30T12:06:36;2.30;;;1.50;;
76377;SDS011;65200;49.500;8.654;2023-04-30T12:09:03;3.28;;;2.08;;
76377;SDS011;65200;49.500;8.654;2023-04-30T12:11:31;2.42;;;1.80;;
76377;SDS011;65200;49.500;8.654;2023-04-30T12:14:00;3.60;;;1.90;;
76377;SDS011;65200;49.500;8.654;2023-04-30T12:16:37;2.10;;;1.52;;
76377;SDS011;65200;49.500;8.654;2023-04-30T12:19:04;2.08;;;1.58;;
76377;SDS011;65200;49.500;8.654;2023-04-30T12:21:31;2.78;;;1.83;;
76377;SDS011;65200;49.500;8.654;2023-04-30T12:23:58;1.75;;;1.38;;
76377;SDS011;65200;49.500;8.654;2023-04-30T12:26:34;1.63;;;1.45;;
76377;SDS011;65200;49.500;8.654;2023-04-30T12:29:02;2.30;;;1.95;;
76377;SDS011;65200;49.500;8.654;2023-04-30T12:31:30;2.10;;;1.60;;
76377;SDS011;65200;49.500;8.654;2023-04-30T12:33:57;3.42;;;2.00;;
76377;SDS011;65200;49.500;8.654;2023-04-30T12:36:30;2.35;;;1.80;;
76377;SDS011;65200;49.500;8.654;2023-04-30T12:39:07;2.88;;;2.00;;
76377;SDS011;65200;49.500;8.654;2023-04-30T12:41:36;2.30;;;1.95;;
76377;SDS011;65200;49.500;8.654;2023-04-30T12:44:18;1.95;;;1.35;;
76377;SDS011;65200;49.500;8.654;2023-04-30T12:46:45;1.92;;;1.42;;
76377;SDS011;65200;49.500;8.654;2023-04-30T12:49:21;3.00;;;1.77;;
76377;SDS011;65200;49.500;8.654;2023-04-30T12:51:48;2.50;;;1.70;;
76377;SDS011;65200;49.500;8.654;2023-04-30T12:54:23;2.38;;;1.63;;
76377;SDS011;65200;49.500;8.654;2023-04-30T12:56:58;1.70;;;1.40;;
76377;SDS011;65200;49.500;8.654;2023-04-30T12:59:26;1.85;;;1.42;;
76377;SDS011;65200;49.500;8.654;2023-04-30T13:01:52;2.83;;;1.50;;
76377;SDS011;65200;49.500;8.654;2023-04-30T13:04:19;2.63;;;1.58;;
76377;SDS011;65200;49.500;8.654;2023-04-30T13:06:45;3.88;;;1.70;;
76377;SDS011;65200;49.500;8.654;2023-04-30T13:09:12;3.95;;;1.63;;
76377;SDS011;65200;49.500;8.654;2023-04-30T13:11:38;2.70;;;1.80;;
76377;SDS011;65200;49.500;8.654;2023-04-30T13:14:06;2.97;;;1.80;;
76377;SDS011;65200;49.500;8.654;2023-04-30T13:16:34;1.65;;;1.40;;
76377;SDS011;65200;49.500;8.654;2023-04-30T13:19:00;2.22;;;1.83;;
76377;SDS011;65200;49.500;8.654;2023-04-30T13:21:29;2.08;;;1.80;;
76377;SDS011;65200;49.500;8.654;2023-04-30T13:23:56;2.00;;;1.70;;
76377;SDS011;65200;49.500;8.654;2023-04-30T13:26:23;1.67;;;1.40;;
76377;SDS011;65200;49.500;8.654;2023-04-30T13:28:50;2.30;;;1.90;;
76377;SDS011;65200;49.500;8.654;2023-04-30T13:31:18;2.00;;;1.42;;
76377;SDS011;65200;49.500;8.654;2023-04-30T13:33:45;1.40;;;1.23;;
76377;SDS011;65200;49.500;8.654;2023-04-30T13:36:11;1.88;;;1.60;;
76377;SDS011;65200;49.500;8.654;2023-04-30T13:38:37;1.67;;;1.25;;
76377;SDS011;65200;49.500;8.654;2023-04-30T13:41:04;2.05;;;1.42;;
76377;SDS011;65200;49.500;8.654;2023-04-30T13:43:30;1.98;;;1.40;;
76377;SDS011;65200;49.500;8.654;2023-04-30T13:45:57;2.08;;;1.50;;
76377;SDS011;65200;49.500;8.654;2023-04-30T13:48:25;2.40;;;1.50;;
76377;SDS011;65200;49.500;8.654;2023-04-30T13:50:51;2.17;;;1.60;;
76377;SDS011;65200;49.500;8.654;2023-04-30T13:55:45;1.52;;;1.25;;
76377;SDS011;65200;49.500;8.654;2023-04-30T13:58:12;3.28;;;1.30;;
76377;SDS011;65200;49.500;8.654;2023-04-30T14:00:38;2.35;;;1.50;;
76377;SDS011;65200;49.500;8.654;2023-04-30T14:03:05;2.50;;;1.80;;
76377;SDS011;65200;49.500;8.654;2023-04-30T14:05:33;1.55;;;1.42;;
76377;SDS011;65200;49.500;8.654;2023-04-30T14:08:00;1.52;;;1.20;;
76377;SDS011;65200;49.500;8.654;2023-04-30T14:10:27;2.28;;;1.52;;
76377;SDS011;65200;49.500;8.654;2023-04-30T14:12:53;1.80;;;1.48;;
76377;SDS011;65200;49.500;8.654;2023-04-30T14:15:20;1.88;;;1.40;;
76377;SDS011;65200;49.500;8.654;2023-04-30T14:17:46;1.45;;;1.23;;
76377;SDS011;65200;49.500;8.654;2023-04-30T14:20:13;1.88;;;1.60;;
76377;SDS011;65200;49.500;8.654;2023-04-30T14:22:41;2.20;;;1.48;;
76377;SDS011;65200;49.500;8.654;2023-04-30T14:25:08;2.00;;;1.33;;
76377;SDS011;65200;49.500;8.654;2023-04-30T14:27:35;2.20;;;1.63;;
76377;SDS011;65200;49.500;8.654;2023-04-30T14:30:02;1.65;;;1.52;;
76377;SDS011;65200;49.500;8.654;2023-04-30T14:32:29;2.17;;;1.48;;
76377;SDS011;65200;49.500;8.654;2023-04-30T14:34:55;2.30;;;1.60;;
76377;SDS011;65200;49.500;8.654;2023-04-30T14:37:22;1.60;;;1.20;;
76377;SDS011;65200;49.500;8.654;2023-04-30T14:39:50;2.00;;;1.30;;
76377;SDS011;65200;49.500;8.654;2023-04-30T14:42:16;1.38;;;1.25;;
76377;SDS011;65200;49.500;8.654;2023-04-30T14:44:43;3.47;;;1.77;;
76377;SDS011;65200;49.500;8.654;2023-04-30T14:47:09;2.15;;;1.48;;
76377;SDS011;65200;49.500;8.654;2023-04-30T14:49:36;2.63;;;2.08;;
76377;SDS011;65200;49.500;8.654;2023-04-30T14:52:03;2.70;;;1.58;;
76377;SDS011;65200;49.500;8.654;2023-04-30T14:54:29;2.03;;;1.65;;
76377;SDS011;65200;49.500;8.654;2023-04-30T14:56:57;1.98;;;1.27;;
76377;SDS011;65200;49.500;8.654;2023-04-30T14:59:23;1.42;;;1.20;;
76377;SDS011;65200;49.500;8.654;2023-04-30T15:01:50;1.15;;;1.00;;
76377;SDS011;65200;49.500;8.654;2023-04-30T15:04:16;2.47;;;1.50;;
76377;SDS011;65200;49.500;8.654;2023-04-30T15:06:42;2.92;;;1.30;;
76377;SDS011;65200;49.500;8.654;2023-04-30T15:09:09;2.00;;;1.40;;
76377;SDS011;65200;49.500;8.654;2023-04-30T15:11:36;1.33;;;1.02;;